sensor_id;sensor_type;location;lat;lon;timestamp;P1;durP1;ratioP1;P2;durP2;ratioP2
74650;SDS011;63169;46.042;14.592;2022-11-15T00:01:40;27.73;;;13.93;;
74650;SDS011;63169;46.042;14.592;2022-11-15T00:04:06;27.90;;;15.05;;
74650;SDS011;63169;46.042;14.592;2022-11-15T00:06:31;28.20;;;13.82;;
74650;SDS011;63169;46.042;14.592;2022-11-15T00:08:57;25.35;;;13.38;;
74650;SDS011;63169;46.042;14.592;2022-11-15T00:11:23;25.48;;;13.07;;
74650;SDS011;63169;46.042;14.592;2022-11-15T00:13:49;25.00;;;13.68;;
74650;SDS011;63169;46.042;14.592;2022-11-15T00:16:14;23.13;;;13.10;;
74650;SDS011;63169;46.042;14.592;2022-11-15T00:18:40;25.65;;;13.57;;
74650;SDS011;63169;46.042;14.592;2022-11-15T00:21:06;23.00;;;12.90;;
74650;SDS011;63169;46.042;14.592;2022-11-15T00:23:34;23.33;;;13.05;;
74650;SDS011;63169;46.042;14.592;2022-11-15T00:25:59;22.85;;;12.13;;
74650;SDS011;63169;46.042;14.592;2022-11-15T00:28:25;24.00;;;11.30;;
74650;SDS011;63169;46.042;14.592;2022-11-15T00:30:51;27.25;;;13.20;;
74650;SDS011;63169;46.042;14.592;2022-11-15T00:33:16;42.20;;;19.10;;
74650;SDS011;63169;46.042;14.592;2022-11-15T00:35:42;40.20;;;20.45;;
74650;SDS011;63169;46.042;14.592;2022-11-15T00:38:07;38.00;;;19.10;;
74650;SDS011;63169;46.042;14.592;2022-11-15T00:40:33;34.78;;;17.95;;
74650;SDS011;63169;46.042;14.592;2022-11-15T00:42:58;34.35;;;18.25;;
74650;SDS011;63169;46.042;14.592;2022-11-15T00:45:24;35.30;;;16.80;;
74650;SDS011;63169;46.042;14.592;2022-11-15T00:47:50;36.58;;;17.75;;
74650;SDS011;63169;46.042;14.592;2022-11-15T00:50:15;35.33;;;18.05;;
74650;SDS011;63169;46.042;14.592;2022-11-15T00:52:41;36.00;;;17.70;;
74650;SDS011;63169;46.042;14.592;2022-11-15T00:55:07;32.25;;;18.65;;
74650;SDS011;63169;46.042;14.592;2022-11-15T00:57:43;29.83;;;15.27;;
74650;SDS011;63169;46.042;14.592;2022-11-15T01:00:09;28.60;;;15.30;;
74650;SDS011;63169;46.042;14.592;2022-11-15T01:02:34;32.60;;;17.40;;
74650;SDS011;63169;46.042;14.592;2022-11-15T01:05:00;32.03;;;16.42;;
74650;SDS011;63169;46.042;14.592;2022-11-15T01:07:25;33.40;;;17.25;;
74650;SDS011;63169;46.042;14.592;2022-11-15T01:09:51;32.83;;;14.95;;
74650;SDS011;63169;46.042;14.592;2022-11-15T01:12:16;33.08;;;17.20;;
74650;SDS011;63169;46.042;14.592;2022-11-15T01:14:41;29.63;;;15.32;;
74650;SDS011;63169;46.042;14.592;2022-11-15T01:17:07;34.85;;;18.67;;
74650;SDS011;63169;46.042;14.592;2022-11-15T01:19:32;30.83;;;17.35;;
74650;SDS011;63169;46.042;14.592;2022-11-15T01:21:58;31.80;;;17.98;;
74650;SDS011;63169;46.042;14.592;2022-11-15T01:24:23;30.50;;;17.00;;
74650;SDS011;63169;46.042;14.592;2022-11-15T01:26:49;31.90;;;17.05;;
74650;SDS011;63169;46.042;14.592;2022-11-15T01:29:14;32.97;;;15.27;;
74650;SDS011;63169;46.042;14.592;2022-11-15T01:31:39;29.42;;;15.98;;
74650;SDS011;63169;46.042;14.592;2022-11-15T01:34:05;33.00;;;16.67;;
74650;SDS011;63169;46.042;14.592;2022-11-15T01:36:30;30.23;;;15.95;;
74650;SDS011;63169;46.042;14.592;2022-11-15T01:38:56;32.25;;;15.65;;
74650;SDS011;63169;46.042;14.592;2022-11-15T01:41:23;28.70;;;15.60;;
74650;SDS011;63169;46.042;14.592;2022-11-15T01:43:57;29.73;;;16.35;;
74650;SDS011;63169;46.042;14.592;2022-11-15T01:46:58;31.30;;;14.32;;
74650;SDS011;63169;46.042;14.592;2022-11-15T01:49:24;32.13;;;17.00;;
74650;SDS011;63169;46.042;14.592;2022-11-15T01:51:50;34.80;;;17.95;;
74650;SDS011;63169;46.042;14.592;2022-11-15T01:54:17;31.15;;;16.88;;
74650;SDS011;63169;46.042;14.592;2022-11-15T01:56:52;35.22;;;18.35;;
74650;SDS011;63169;46.042;14.592;2022-11-15T01:59:20;31.55;;;17.83;;
74650;SDS011;63169;46.042;14.592;2022-11-15T02:01:46;37.15;;;18.35;;
74650;SDS011;63169;46.042;14.592;2022-11-15T02:04:15;31.73;;;17.98;;
74650;SDS011;63169;46.042;14.592;2022-11-15T02:06:43;36.97;;;17.33;;
74650;SDS011;63169;46.042;14.592;2022-11-15T02:09:09;30.38;;;17.23;;
74650;SDS011;63169;46.042;14.592;2022-11-15T02:11:35;26.75;;;14.38;;
74650;SDS011;63169;46.042;14.592;2022-11-15T02:14:01;27.95;;;14.27;;
74650;SDS011;63169;46.042;14.592;2022-11-15T02:27:35;35.05;;;18.02;;
74650;SDS011;63169;46.042;14.592;2022-11-15T02:30:44;28.83;;;15.18;;
74650;SDS011;63169;46.042;14.592;2022-11-15T02:33:35;34.60;;;17.15;;
74650;SDS011;63169;46.042;14.592;2022-11-15T02:39:11;30.83;;;15.68;;
74650;SDS011;63169;46.042;14.592;2022-11-15T02:41:48;32.42;;;17.17;;
74650;SDS011;63169;46.042;14.592;2022-11-15T02:44:22;37.63;;;20.50;;
74650;SDS011;63169;46.042;14.592;2022-11-15T02:46:53;34.00;;;17.25;;
74650;SDS011;63169;46.042;14.592;2022-11-15T02:49:43;34.17;;;17.65;;
74650;SDS011;63169;46.042;14.592;2022-11-15T02:52:15;40.70;;;18.48;;
74650;SDS011;63169;46.042;14.592;2022-11-15T02:54:42;31.60;;;16.95;;
74650;SDS011;63169;46.042;14.592;2022-11-15T02:57:10;34.20;;;18.23;;
74650;SDS011;63169;46.042;14.592;2022-11-15T03:04:55;35.97;;;19.33;;
74650;SDS011;63169;46.042;14.592;2022-11-15T03:09:52;36.45;;;18.65;;
74650;SDS011;63169;46.042;14.592;2022-11-15T03:12:30;40.15;;;18.23;;
74650;SDS011;63169;46.042;14.592;2022-11-15T03:15:10;36.47;;;18.42;;
74650;SDS011;63169;46.042;14.592;2022-11-15T03:17:58;41.83;;;19.55;;
74650;SDS011;63169;46.042;14.592;2022-11-15T03:20:27;41.75;;;19.38;;
74650;SDS011;63169;46.042;14.592;2022-11-15T03:22:54;37.80;;;18.15;;
74650;SDS011;63169;46.042;14.592;2022-11-15T03:25:22;39.60;;;19.08;;
74650;SDS011;63169;46.042;14.592;2022-11-15T03:27:50;38.50;;;18.67;;
74650;SDS011;63169;46.042;14.592;2022-11-15T03:30:17;37.42;;;18.23;;
74650;SDS011;63169;46.042;14.592;2022-11-15T03:32:44;39.28;;;19.30;;
74650;SDS011;63169;46.042;14.592;2022-11-15T03:35:12;40.85;;;18.80;;
74650;SDS011;63169;46.042;14.592;2022-11-15T03:40:08;41.63;;;19.20;;
74650;SDS011;63169;46.042;14.592;2022-11-15T03:42:48;38.17;;;18.55;;
74650;SDS011;63169;46.042;14.592;2022-11-15T03:45:22;37.15;;;17.08;;
74650;SDS011;63169;46.042;14.592;2022-11-15T03:47:54;40.35;;;19.17;;
74650;SDS011;63169;46.042;14.592;2022-11-15T03:50:24;37.55;;;19.52;;
74650;SDS011;63169;46.042;14.592;2022-11-15T03:52:50;42.83;;;18.75;;
74650;SDS011;63169;46.042;14.592;2022-11-15T03:55:20;37.88;;;19.75;;
74650;SDS011;63169;46.042;14.592;2022-11-15T03:57:47;38.83;;;20.38;;
74650;SDS011;63169;46.042;14.592;2022-11-15T04:00:14;35.83;;;17.67;;
74650;SDS011;63169;46.042;14.592;2022-11-15T04:02:40;39.58;;;18.95;;
74650;SDS011;63169;46.042;14.592;2022-11-15T04:05:05;41.15;;;19.63;;
74650;SDS011;63169;46.042;14.592;2022-11-15T04:07:31;45.65;;;19.67;;
74650;SDS011;63169;46.042;14.592;2022-11-15T04:09:56;45.58;;;21.58;;
74650;SDS011;63169;46.042;14.592;2022-11-15T04:12:28;47.35;;;20.85;;
74650;SDS011;63169;46.042;14.592;2022-11-15T04:15:05;44.22;;;20.50;;
74650;SDS011;63169;46.042;14.592;2022-11-15T04:22:56;43.90;;;21.25;;
74650;SDS011;63169;46.042;14.592;2022-11-15T04:25:41;42.50;;;20.35;;
74650;SDS011;63169;46.042;14.592;2022-11-15T04:28:07;42.85;;;20.50;;
74650;SDS011;63169;46.042;14.592;2022-11-15T04:30:33;38.85;;;19.02;;
74650;SDS011;63169;46.042;14.592;2022-11-15T04:32:58;34.88;;;17.13;;
74650;SDS011;63169;46.042;14.592;2022-11-15T04:35:24;36.58;;;18.10;;
74650;SDS011;63169;46.042;14.592;2022-11-15T04:37:49;40.60;;;19.63;;
74650;SDS011;63169;46.042;14.592;2022-11-15T04:40:15;39.47;;;19.63;;
74650;SDS011;63169;46.042;14.592;2022-11-15T04:42:40;39.67;;;20.95;;
74650;SDS011;63169;46.042;14.592;2022-11-15T04:45:08;41.22;;;19.13;;
74650;SDS011;63169;46.042;14.592;2022-11-15T04:47:34;41.58;;;19.17;;
74650;SDS011;63169;46.042;14.592;2022-11-15T04:49:59;37.28;;;18.50;;
74650;SDS011;63169;46.042;14.592;2022-11-15T04:52:25;39.28;;;19.10;;
74650;SDS011;63169;46.042;14.592;2022-11-15T04:54:50;43.45;;;20.52;;
74650;SDS011;63169;46.042;14.592;2022-11-15T04:57:15;39.03;;;19.98;;
74650;SDS011;63169;46.042;14.592;2022-11-15T04:59:41;37.05;;;18.23;;
74650;SDS011;63169;46.042;14.592;2022-11-15T05:02:06;40.20;;;17.67;;
74650;SDS011;63169;46.042;14.592;2022-11-15T05:04:31;39.53;;;19.80;;
74650;SDS011;63169;46.042;14.592;2022-11-15T05:06:57;38.63;;;18.83;;
74650;SDS011;63169;46.042;14.592;2022-11-15T05:09:22;38.17;;;19.23;;
74650;SDS011;63169;46.042;14.592;2022-11-15T05:11:48;35.05;;;19.10;;
74650;SDS011;63169;46.042;14.592;2022-11-15T05:14:13;43.35;;;18.88;;
74650;SDS011;63169;46.042;14.592;2022-11-15T05:16:39;36.33;;;18.98;;
74650;SDS011;63169;46.042;14.592;2022-11-15T05:19:05;35.67;;;20.35;;
74650;SDS011;63169;46.042;14.592;2022-11-15T05:21:31;38.28;;;17.25;;
74650;SDS011;63169;46.042;14.592;2022-11-15T05:23:57;42.20;;;20.10;;
74650;SDS011;63169;46.042;14.592;2022-11-15T05:26:22;35.03;;;17.00;;
74650;SDS011;63169;46.042;14.592;2022-11-15T05:28:51;33.53;;;17.25;;
74650;SDS011;63169;46.042;14.592;2022-11-15T05:31:18;40.38;;;17.30;;
74650;SDS011;63169;46.042;14.592;2022-11-15T05:33:43;42.67;;;17.90;;
74650;SDS011;63169;46.042;14.592;2022-11-15T05:38:58;41.65;;;19.95;;
74650;SDS011;63169;46.042;14.592;2022-11-15T05:41:34;38.58;;;19.48;;
74650;SDS011;63169;46.042;14.592;2022-11-15T05:44:05;36.95;;;18.98;;
74650;SDS011;63169;46.042;14.592;2022-11-15T05:46:33;38.05;;;18.67;;
74650;SDS011;63169;46.042;14.592;2022-11-15T05:48:58;42.75;;;20.77;;
74650;SDS011;63169;46.042;14.592;2022-11-15T05:51:24;42.47;;;20.95;;
74650;SDS011;63169;46.042;14.592;2022-11-15T05:53:52;45.10;;;21.27;;
74650;SDS011;63169;46.042;14.592;2022-11-15T05:56:18;40.00;;;19.70;;
74650;SDS011;63169;46.042;14.592;2022-11-15T05:58:43;39.15;;;19.67;;
74650;SDS011;63169;46.042;14.592;2022-11-15T06:01:09;37.80;;;20.15;;
74650;SDS011;63169;46.042;14.592;2022-11-15T06:03:34;35.95;;;17.95;;
74650;SDS011;63169;46.042;14.592;2022-11-15T06:06:00;31.17;;;16.55;;
74650;SDS011;63169;46.042;14.592;2022-11-15T06:08:26;36.25;;;19.63;;
74650;SDS011;63169;46.042;14.592;2022-11-15T06:10:52;36.33;;;17.25;;
74650;SDS011;63169;46.042;14.592;2022-11-15T06:13:17;38.47;;;18.08;;
74650;SDS011;63169;46.042;14.592;2022-11-15T06:15:42;38.10;;;18.55;;
74650;SDS011;63169;46.042;14.592;2022-11-15T06:18:08;43.55;;;19.50;;
74650;SDS011;63169;46.042;14.592;2022-11-15T06:20:33;37.92;;;19.13;;
74650;SDS011;63169;46.042;14.592;2022-11-15T06:22:59;42.58;;;19.90;;
74650;SDS011;63169;46.042;14.592;2022-11-15T06:27:54;40.55;;;19.45;;
74650;SDS011;63169;46.042;14.592;2022-11-15T06:30:21;38.90;;;18.75;;
74650;SDS011;63169;46.042;14.592;2022-11-15T06:32:47;36.58;;;16.20;;
74650;SDS011;63169;46.042;14.592;2022-11-15T06:35:13;37.17;;;16.63;;
74650;SDS011;63169;46.042;14.592;2022-11-15T06:37:39;35.55;;;18.00;;
74650;SDS011;63169;46.042;14.592;2022-11-15T06:40:05;36.67;;;18.92;;
74650;SDS011;63169;46.042;14.592;2022-11-15T06:42:31;39.10;;;17.88;;
74650;SDS011;63169;46.042;14.592;2022-11-15T06:44:56;39.80;;;17.60;;
74650;SDS011;63169;46.042;14.592;2022-11-15T06:47:21;35.88;;;16.25;;
74650;SDS011;63169;46.042;14.592;2022-11-15T06:49:47;40.22;;;20.30;;
74650;SDS011;63169;46.042;14.592;2022-11-15T06:52:12;42.35;;;20.98;;
74650;SDS011;63169;46.042;14.592;2022-11-15T06:54:37;36.80;;;17.75;;
74650;SDS011;63169;46.042;14.592;2022-11-15T06:57:03;39.72;;;18.27;;
74650;SDS011;63169;46.042;14.592;2022-11-15T06:59:29;35.55;;;17.77;;
74650;SDS011;63169;46.042;14.592;2022-11-15T07:01:55;38.65;;;18.17;;
74650;SDS011;63169;46.042;14.592;2022-11-15T07:04:20;40.42;;;20.35;;
74650;SDS011;63169;46.042;14.592;2022-11-15T07:06:46;43.00;;;20.10;;
74650;SDS011;63169;46.042;14.592;2022-11-15T07:09:12;45.28;;;21.73;;
74650;SDS011;63169;46.042;14.592;2022-11-15T07:11:38;47.80;;;22.58;;
74650;SDS011;63169;46.042;14.592;2022-11-15T07:14:03;39.63;;;20.45;;
74650;SDS011;63169;46.042;14.592;2022-11-15T07:16:29;42.95;;;21.42;;
74650;SDS011;63169;46.042;14.592;2022-11-15T07:18:54;51.80;;;23.27;;
74650;SDS011;63169;46.042;14.592;2022-11-15T07:21:19;42.78;;;20.20;;
74650;SDS011;63169;46.042;14.592;2022-11-15T07:23:45;62.92;;;28.23;;
74650;SDS011;63169;46.042;14.592;2022-11-15T07:26:10;56.40;;;25.67;;
74650;SDS011;63169;46.042;14.592;2022-11-15T07:28:35;56.75;;;28.67;;
74650;SDS011;63169;46.042;14.592;2022-11-15T07:31:02;52.17;;;26.10;;
74650;SDS011;63169;46.042;14.592;2022-11-15T07:33:31;38.35;;;19.15;;
74650;SDS011;63169;46.042;14.592;2022-11-15T07:36:00;38.55;;;19.20;;
74650;SDS011;63169;46.042;14.592;2022-11-15T07:38:29;34.40;;;18.58;;
74650;SDS011;63169;46.042;14.592;2022-11-15T07:40:58;38.58;;;19.05;;
74650;SDS011;63169;46.042;14.592;2022-11-15T07:43:24;36.38;;;19.00;;
74650;SDS011;63169;46.042;14.592;2022-11-15T07:45:50;41.55;;;23.65;;
74650;SDS011;63169;46.042;14.592;2022-11-15T07:48:15;36.75;;;20.13;;
74650;SDS011;63169;46.042;14.592;2022-11-15T07:50:41;40.13;;;19.70;;
74650;SDS011;63169;46.042;14.592;2022-11-15T07:53:07;39.30;;;21.25;;
74650;SDS011;63169;46.042;14.592;2022-11-15T07:55:33;38.40;;;18.77;;
74650;SDS011;63169;46.042;14.592;2022-11-15T07:58:02;38.40;;;18.65;;
74650;SDS011;63169;46.042;14.592;2022-11-15T08:00:31;36.83;;;18.90;;
74650;SDS011;63169;46.042;14.592;2022-11-15T08:03:11;35.85;;;18.52;;
74650;SDS011;63169;46.042;14.592;2022-11-15T08:05:38;38.63;;;18.63;;
74650;SDS011;63169;46.042;14.592;2022-11-15T08:10:30;38.00;;;19.00;;
74650;SDS011;63169;46.042;14.592;2022-11-15T08:13:00;34.25;;;17.15;;
74650;SDS011;63169;46.042;14.592;2022-11-15T08:15:27;37.15;;;20.67;;
74650;SDS011;63169;46.042;14.592;2022-11-15T08:17:54;34.58;;;17.20;;
74650;SDS011;63169;46.042;14.592;2022-11-15T08:20:20;37.83;;;18.05;;
74650;SDS011;63169;46.042;14.592;2022-11-15T08:22:46;38.00;;;18.63;;
74650;SDS011;63169;46.042;14.592;2022-11-15T08:25:11;35.38;;;18.48;;
74650;SDS011;63169;46.042;14.592;2022-11-15T08:27:36;34.72;;;17.30;;
74650;SDS011;63169;46.042;14.592;2022-11-15T08:30:02;39.60;;;17.65;;
74650;SDS011;63169;46.042;14.592;2022-11-15T08:32:28;34.60;;;16.77;;
74650;SDS011;63169;46.042;14.592;2022-11-15T08:34:53;43.58;;;18.77;;
74650;SDS011;63169;46.042;14.592;2022-11-15T08:37:18;35.95;;;18.55;;
74650;SDS011;63169;46.042;14.592;2022-11-15T08:39:44;34.47;;;17.75;;
74650;SDS011;63169;46.042;14.592;2022-11-15T08:42:09;37.38;;;17.73;;
74650;SDS011;63169;46.042;14.592;2022-11-15T08:44:34;40.15;;;16.65;;
74650;SDS011;63169;46.042;14.592;2022-11-15T08:47:00;37.83;;;17.58;;
74650;SDS011;63169;46.042;14.592;2022-11-15T08:49:25;41.58;;;18.63;;
74650;SDS011;63169;46.042;14.592;2022-11-15T08:51:51;36.60;;;16.15;;
74650;SDS011;63169;46.042;14.592;2022-11-15T08:54:16;33.85;;;16.40;;
74650;SDS011;63169;46.042;14.592;2022-11-15T08:56:41;37.60;;;17.05;;
74650;SDS011;63169;46.042;14.592;2022-11-15T08:59:07;30.10;;;16.45;;
74650;SDS011;63169;46.042;14.592;2022-11-15T09:01:32;34.10;;;16.83;;
74650;SDS011;63169;46.042;14.592;2022-11-15T09:03:58;33.40;;;16.38;;
74650;SDS011;63169;46.042;14.592;2022-11-15T09:06:23;32.08;;;17.17;;
74650;SDS011;63169;46.042;14.592;2022-11-15T09:08:48;33.85;;;16.92;;
74650;SDS011;63169;46.042;14.592;2022-11-15T09:11:14;36.80;;;16.90;;
74650;SDS011;63169;46.042;14.592;2022-11-15T09:13:41;31.08;;;18.67;;
74650;SDS011;63169;46.042;14.592;2022-11-15T09:16:06;31.65;;;17.38;;
74650;SDS011;63169;46.042;14.592;2022-11-15T09:18:32;30.92;;;15.20;;
74650;SDS011;63169;46.042;14.592;2022-11-15T09:21:00;33.65;;;17.13;;
74650;SDS011;63169;46.042;14.592;2022-11-15T09:23:27;29.73;;;14.85;;
74650;SDS011;63169;46.042;14.592;2022-11-15T09:25:57;34.60;;;16.15;;
74650;SDS011;63169;46.042;14.592;2022-11-15T09:28:27;29.92;;;14.25;;
74650;SDS011;63169;46.042;14.592;2022-11-15T09:30:57;27.55;;;13.50;;
74650;SDS011;63169;46.042;14.592;2022-11-15T09:33:23;27.52;;;14.05;;
74650;SDS011;63169;46.042;14.592;2022-11-15T09:35:49;35.72;;;15.48;;
74650;SDS011;63169;46.042;14.592;2022-11-15T09:38:14;32.17;;;17.92;;
74650;SDS011;63169;46.042;14.592;2022-11-15T09:40:40;30.42;;;15.20;;
74650;SDS011;63169;46.042;14.592;2022-11-15T09:46:03;30.60;;;15.85;;
74650;SDS011;63169;46.042;14.592;2022-11-15T09:48:49;30.08;;;15.07;;
74650;SDS011;63169;46.042;14.592;2022-11-15T09:51:37;27.70;;;14.88;;
74650;SDS011;63169;46.042;14.592;2022-11-15T09:57:09;25.50;;;12.32;;
74650;SDS011;63169;46.042;14.592;2022-11-15T10:04:39;25.30;;;13.35;;
74650;SDS011;63169;46.042;14.592;2022-11-15T10:12:27;25.92;;;12.95;;
74650;SDS011;63169;46.042;14.592;2022-11-15T10:15:03;26.60;;;12.57;;
74650;SDS011;63169;46.042;14.592;2022-11-15T10:20:39;29.17;;;13.35;;
74650;SDS011;63169;46.042;14.592;2022-11-15T10:23:13;27.75;;;12.85;;
74650;SDS011;63169;46.042;14.592;2022-11-15T10:25:40;28.02;;;12.85;;
74650;SDS011;63169;46.042;14.592;2022-11-15T10:30:48;29.27;;;15.18;;
74650;SDS011;63169;46.042;14.592;2022-11-15T10:33:24;23.83;;;12.38;;
74650;SDS011;63169;46.042;14.592;2022-11-15T10:36:14;24.73;;;13.25;;
74650;SDS011;63169;46.042;14.592;2022-11-15T10:42:15;27.80;;;13.05;;
74650;SDS011;63169;46.042;14.592;2022-11-15T10:44:18;24.40;;;14.25;;
74650;SDS011;63169;46.042;14.592;2022-11-15T10:47:05;32.13;;;14.10;;
74650;SDS011;63169;46.042;14.592;2022-11-15T10:49:33;24.25;;;13.15;;
74650;SDS011;63169;46.042;14.592;2022-11-15T10:52:04;21.30;;;11.55;;
74650;SDS011;63169;46.042;14.592;2022-11-15T10:54:44;24.63;;;10.43;;
74650;SDS011;63169;46.042;14.592;2022-11-15T10:57:13;20.88;;;11.30;;
74650;SDS011;63169;46.042;14.592;2022-11-15T10:59:45;27.92;;;13.40;;
74650;SDS011;63169;46.042;14.592;2022-11-15T11:05:07;18.35;;;9.00;;
74650;SDS011;63169;46.042;14.592;2022-11-15T11:07:57;21.98;;;9.70;;
74650;SDS011;63169;46.042;14.592;2022-11-15T11:10:30;16.10;;;10.73;;
74650;SDS011;63169;46.042;14.592;2022-11-15T11:13:14;19.02;;;7.55;;
74650;SDS011;63169;46.042;14.592;2022-11-15T11:15:46;13.45;;;6.13;;
74650;SDS011;63169;46.042;14.592;2022-11-15T11:18:23;15.98;;;7.20;;
74650;SDS011;63169;46.042;14.592;2022-11-15T11:20:58;23.10;;;8.63;;
74650;SDS011;63169;46.042;14.592;2022-11-15T11:34:55;15.68;;;7.85;;
74650;SDS011;63169;46.042;14.592;2022-11-15T11:48:51;13.85;;;5.85;;
74650;SDS011;63169;46.042;14.592;2022-11-15T11:51:40;20.40;;;9.70;;
74650;SDS011;63169;46.042;14.592;2022-11-15T11:54:13;11.55;;;6.40;;
74650;SDS011;63169;46.042;14.592;2022-11-15T11:56:43;11.05;;;4.68;;
74650;SDS011;63169;46.042;14.592;2022-11-15T12:01:42;12.32;;;6.53;;
74650;SDS011;63169;46.042;14.592;2022-11-15T12:06:56;9.32;;;5.47;;
74650;SDS011;63169;46.042;14.592;2022-11-15T12:09:44;11.48;;;5.10;;
74650;SDS011;63169;46.042;14.592;2022-11-15T12:17:33;10.32;;;4.72;;
74650;SDS011;63169;46.042;14.592;2022-11-15T12:19:59;17.90;;;4.43;;
74650;SDS011;63169;46.042;14.592;2022-11-15T12:25:23;13.30;;;4.85;;
74650;SDS011;63169;46.042;14.592;2022-11-15T12:30:50;14.75;;;5.10;;
74650;SDS011;63169;46.042;14.592;2022-11-15T12:33:36;10.10;;;4.50;;
74650;SDS011;63169;46.042;14.592;2022-11-15T12:36:04;19.13;;;5.20;;
74650;SDS011;63169;46.042;14.592;2022-11-15T12:41:32;23.73;;;6.88;;
74650;SDS011;63169;46.042;14.592;2022-11-15T12:43:59;11.73;;;4.50;;
74650;SDS011;63169;46.042;14.592;2022-11-15T12:49:01;11.10;;;5.00;;
74650;SDS011;63169;46.042;14.592;2022-11-15T13:02:21;11.57;;;4.88;;
74650;SDS011;63169;46.042;14.592;2022-11-15T13:04:49;13.55;;;6.28;;
74650;SDS011;63169;46.042;14.592;2022-11-15T13:09:59;12.63;;;5.22;;
74650;SDS011;63169;46.042;14.592;2022-11-15T13:14:54;12.77;;;5.75;;
74650;SDS011;63169;46.042;14.592;2022-11-15T13:17:27;12.27;;;6.97;;
74650;SDS011;63169;46.042;14.592;2022-11-15T13:22:26;10.73;;;4.82;;
74650;SDS011;63169;46.042;14.592;2022-11-15T13:25:15;16.00;;;5.30;;
74650;SDS011;63169;46.042;14.592;2022-11-15T13:27:44;9.90;;;4.25;;
74650;SDS011;63169;46.042;14.592;2022-11-15T13:30:22;8.15;;;3.58;;
74650;SDS011;63169;46.042;14.592;2022-11-15T13:32:49;10.07;;;4.40;;
74650;SDS011;63169;46.042;14.592;2022-11-15T13:35:23;8.45;;;5.38;;
74650;SDS011;63169;46.042;14.592;2022-11-15T13:37:50;7.40;;;4.80;;
74650;SDS011;63169;46.042;14.592;2022-11-15T13:40:25;14.68;;;6.28;;
74650;SDS011;63169;46.042;14.592;2022-11-15T13:42:55;12.55;;;5.03;;
74650;SDS011;63169;46.042;14.592;2022-11-15T13:45:21;12.50;;;7.07;;
74650;SDS011;63169;46.042;14.592;2022-11-15T13:47:56;10.85;;;4.50;;
74650;SDS011;63169;46.042;14.592;2022-11-15T13:50:32;8.73;;;4.88;;
74650;SDS011;63169;46.042;14.592;2022-11-15T13:52:59;8.10;;;4.07;;
74650;SDS011;63169;46.042;14.592;2022-11-15T13:55:26;11.88;;;4.97;;
74650;SDS011;63169;46.042;14.592;2022-11-15T13:57:54;10.38;;;5.40;;
74650;SDS011;63169;46.042;14.592;2022-11-15T14:00:41;13.73;;;6.82;;
74650;SDS011;63169;46.042;14.592;2022-11-15T14:03:30;13.75;;;6.32;;
74650;SDS011;63169;46.042;14.592;2022-11-15T14:08:37;7.10;;;4.00;;
74650;SDS011;63169;46.042;14.592;2022-11-15T14:13:32;8.25;;;6.38;;
74650;SDS011;63169;46.042;14.592;2022-11-15T14:16:17;9.25;;;4.65;;
74650;SDS011;63169;46.042;14.592;2022-11-15T14:18:48;7.32;;;3.78;;
74650;SDS011;63169;46.042;14.592;2022-11-15T14:21:15;8.73;;;4.72;;
74650;SDS011;63169;46.042;14.592;2022-11-15T14:23:41;18.08;;;5.30;;
74650;SDS011;63169;46.042;14.592;2022-11-15T14:26:10;11.25;;;4.43;;
74650;SDS011;63169;46.042;14.592;2022-11-15T14:28:50;8.75;;;5.05;;
74650;SDS011;63169;46.042;14.592;2022-11-15T14:31:15;10.68;;;4.40;;
74650;SDS011;63169;46.042;14.592;2022-11-15T14:33:41;11.93;;;6.47;;
74650;SDS011;63169;46.042;14.592;2022-11-15T14:36:11;14.43;;;6.00;;
74650;SDS011;63169;46.042;14.592;2022-11-15T14:38:41;13.82;;;6.18;;
74650;SDS011;63169;46.042;14.592;2022-11-15T14:41:41;10.95;;;4.72;;
74650;SDS011;63169;46.042;14.592;2022-11-15T14:44:02;12.32;;;4.30;;
74650;SDS011;63169;46.042;14.592;2022-11-15T14:46:29;13.85;;;8.77;;
74650;SDS011;63169;46.042;14.592;2022-11-15T14:48:54;8.90;;;3.92;;
74650;SDS011;63169;46.042;14.592;2022-11-15T14:51:19;12.20;;;4.65;;
74650;SDS011;63169;46.042;14.592;2022-11-15T14:53:45;13.63;;;6.43;;
74650;SDS011;63169;46.042;14.592;2022-11-15T14:56:11;9.50;;;4.13;;
74650;SDS011;63169;46.042;14.592;2022-11-15T14:58:37;8.60;;;4.18;;
74650;SDS011;63169;46.042;14.592;2022-11-15T15:01:14;8.48;;;3.90;;
74650;SDS011;63169;46.042;14.592;2022-11-15T15:03:42;10.15;;;4.47;;
74650;SDS011;63169;46.042;14.592;2022-11-15T15:06:09;8.85;;;4.47;;
74650;SDS011;63169;46.042;14.592;2022-11-15T15:08:34;13.02;;;4.30;;
74650;SDS011;63169;46.042;14.592;2022-11-15T15:11:00;12.30;;;5.35;;
74650;SDS011;63169;46.042;14.592;2022-11-15T15:13:25;9.85;;;5.65;;
74650;SDS011;63169;46.042;14.592;2022-11-15T15:15:51;13.10;;;5.78;;
74650;SDS011;63169;46.042;14.592;2022-11-15T15:18:17;16.50;;;8.38;;
74650;SDS011;63169;46.042;14.592;2022-11-15T15:20:43;17.70;;;7.10;;
74650;SDS011;63169;46.042;14.592;2022-11-15T15:23:14;17.88;;;8.80;;
74650;SDS011;63169;46.042;14.592;2022-11-15T15:25:41;19.70;;;9.13;;
74650;SDS011;63169;46.042;14.592;2022-11-15T15:28:08;21.33;;;8.38;;
74650;SDS011;63169;46.042;14.592;2022-11-15T15:30:33;14.38;;;10.95;;
74650;SDS011;63169;46.042;14.592;2022-11-15T15:32:59;10.88;;;5.78;;
74650;SDS011;63169;46.042;14.592;2022-11-15T15:35:26;15.68;;;7.28;;
74650;SDS011;63169;46.042;14.592;2022-11-15T15:37:55;37.08;;;16.63;;
74650;SDS011;63169;46.042;14.592;2022-11-15T15:40:21;50.58;;;24.85;;
74650;SDS011;63169;46.042;14.592;2022-11-15T15:42:48;22.50;;;14.90;;
74650;SDS011;63169;46.042;14.592;2022-11-15T15:45:14;28.23;;;14.02;;
74650;SDS011;63169;46.042;14.592;2022-11-15T15:47:40;25.05;;;13.48;;
74650;SDS011;63169;46.042;14.592;2022-11-15T15:52:58;13.90;;;7.68;;
74650;SDS011;63169;46.042;14.592;2022-11-15T15:55:25;13.75;;;7.15;;
74650;SDS011;63169;46.042;14.592;2022-11-15T15:57:51;13.50;;;7.65;;
74650;SDS011;63169;46.042;14.592;2022-11-15T16:00:17;11.38;;;6.43;;
74650;SDS011;63169;46.042;14.592;2022-11-15T16:05:09;11.90;;;7.65;;
74650;SDS011;63169;46.042;14.592;2022-11-15T16:10:00;12.00;;;6.00;;
74650;SDS011;63169;46.042;14.592;2022-11-15T16:12:30;12.68;;;6.28;;
74650;SDS011;63169;46.042;14.592;2022-11-15T16:14:57;11.25;;;6.50;;
74650;SDS011;63169;46.042;14.592;2022-11-15T16:17:26;11.10;;;5.60;;
74650;SDS011;63169;46.042;14.592;2022-11-15T16:19:55;13.27;;;6.65;;
74650;SDS011;63169;46.042;14.592;2022-11-15T16:22:20;14.18;;;6.53;;
74650;SDS011;63169;46.042;14.592;2022-11-15T16:24:45;15.60;;;7.20;;
74650;SDS011;63169;46.042;14.592;2022-11-15T16:27:14;19.58;;;8.18;;
74650;SDS011;63169;46.042;14.592;2022-11-15T16:29:41;16.08;;;7.22;;
74650;SDS011;63169;46.042;14.592;2022-11-15T16:32:07;14.88;;;8.55;;
74650;SDS011;63169;46.042;14.592;2022-11-15T16:34:32;11.88;;;7.78;;
74650;SDS011;63169;46.042;14.592;2022-11-15T16:36:57;14.15;;;7.97;;
74650;SDS011;63169;46.042;14.592;2022-11-15T16:39:23;18.27;;;8.45;;
74650;SDS011;63169;46.042;14.592;2022-11-15T16:41:48;17.45;;;8.65;;
74650;SDS011;63169;46.042;14.592;2022-11-15T16:44:14;11.85;;;7.13;;